createdAt,value
2022-08-25T00:00:38.955Z,1016.39
2022-08-25T00:01:39.002Z,1016.38
2022-08-25T00:02:39.048Z,1016.37
2022-08-25T00:03:39.585Z,1016.38
2022-08-25T00:04:38.905Z,1016.38
2022-08-25T00:05:38.975Z,1016.38
2022-08-25T00:06:38.906Z,1016.38
2022-08-25T00:07:38.879Z,1016.38
2022-08-25T00:08:38.870Z,1016.37
2022-08-25T00:09:38.866Z,1016.37
2022-08-25T00:10:38.844Z,1016.37
2022-08-25T00:11:38.851Z,1016.37
2022-08-25T00:12:38.818Z,1016.34
2022-08-25T00:13:38.817Z,1016.36
2022-08-25T00:14:38.798Z,1016.35
2022-08-25T00:15:38.847Z,1016.35
2022-08-25T00:16:38.782Z,1016.35
2022-08-25T00:17:38.780Z,1016.34
2022-08-25T00:18:38.752Z,1016.33
2022-08-25T00:19:38.746Z,1016.30
2022-08-25T00:20:38.757Z,1016.29
2022-08-25T00:21:38.728Z,1016.30
2022-08-25T00:22:38.722Z,1016.30
2022-08-25T00:23:38.709Z,1016.28
2022-08-25T00:24:38.694Z,1016.27
2022-08-25T00:25:38.706Z,1016.25
2022-08-25T00:26:38.678Z,1016.21
2022-08-25T00:27:38.667Z,1016.21
2022-08-25T00:28:38.653Z,1016.20
2022-08-25T00:29:38.646Z,1016.19
2022-08-25T00:30:38.648Z,1016.18
2022-08-25T00:31:39.209Z,1016.18
2022-08-25T00:32:38.610Z,1016.18
2022-08-25T00:33:38.602Z,1016.17
2022-08-25T00:34:38.609Z,1016.16
2022-08-25T00:35:38.605Z,1016.14
2022-08-25T00:36:38.573Z,1016.14
2022-08-25T00:37:38.565Z,1016.14
2022-08-25T00:38:38.547Z,1016.13
2022-08-25T00:39:38.541Z,1016.14
2022-08-25T00:40:38.543Z,1016.14
2022-08-25T00:41:38.526Z,1016.15
2022-08-25T00:42:38.516Z,1016.15
2022-08-25T00:43:38.502Z,1016.16
2022-08-25T00:44:38.479Z,1016.14
2022-08-25T00:45:38.490Z,1016.17
2022-08-25T00:46:38.476Z,1016.16
2022-08-25T00:47:38.450Z,1016.17
2022-08-25T00:48:38.438Z,1016.16
2022-08-25T00:49:38.443Z,1016.17
2022-08-25T00:50:38.437Z,1016.16
2022-08-25T00:51:38.414Z,1016.15
2022-08-25T00:52:38.404Z,1016.14
2022-08-25T00:53:38.387Z,1016.11
2022-08-25T00:54:38.395Z,1016.12
2022-08-25T00:55:38.405Z,1016.12
2022-08-25T00:56:38.351Z,1016.12
2022-08-25T00:57:38.345Z,1016.13
2022-08-25T00:58:38.338Z,1016.15
2022-08-25T00:59:38.327Z,1016.16
2022-08-25T01:00:38.331Z,1016.18
2022-08-25T01:01:38.337Z,1016.19
2022-08-25T01:02:38.379Z,1016.17
2022-08-25T01:03:38.296Z,1016.17
2022-08-25T01:04:38.272Z,1016.18
2022-08-25T01:05:38.285Z,1016.18
2022-08-25T01:06:38.258Z,1016.19
2022-08-25T01:07:38.248Z,1016.20
2022-08-25T01:08:38.231Z,1016.22
2022-08-25T01:09:38.224Z,1016.23
2022-08-25T01:10:38.228Z,1016.25
2022-08-25T01:11:38.207Z,1016.25
2022-08-25T01:12:38.273Z,1016.25
2022-08-25T01:13:38.178Z,1016.25
2022-08-25T01:14:38.180Z,1016.23
2022-08-25T01:15:38.216Z,1016.22
2022-08-25T01:16:38.141Z,1016.20
2022-08-25T01:17:38.147Z,1016.19
2022-08-25T01:18:38.123Z,1016.17
2022-08-25T01:19:38.132Z,1016.16
2022-08-25T01:20:38.109Z,1016.17
2022-08-25T01:21:38.095Z,1016.17
2022-08-25T01:22:38.080Z,1016.18
2022-08-25T01:23:38.074Z,1016.18
2022-08-25T01:24:38.072Z,1016.18
2022-08-25T01:25:38.048Z,1016.19
2022-08-25T01:26:38.037Z,1016.19
2022-08-25T01:27:38.033Z,1016.18
2022-08-25T01:28:38.018Z,1016.18
2022-08-25T01:29:38.029Z,1016.17
2022-08-25T01:30:38.056Z,1016.16
2022-08-25T01:31:38.052Z,1016.18
2022-08-25T01:32:37.979Z,1016.18
2022-08-25T01:33:37.971Z,1016.18
2022-08-25T01:34:37.973Z,1016.17
2022-08-25T01:35:37.947Z,1016.17
2022-08-25T01:36:37.944Z,1016.17
2022-08-25T01:37:37.927Z,1016.18
2022-08-25T01:38:37.911Z,1016.17
2022-08-25T01:39:37.926Z,1016.16
2022-08-25T01:40:37.902Z,1016.16
2022-08-25T01:41:37.887Z,1016.16
2022-08-25T01:42:37.868Z,1016.15
2022-08-25T01:43:37.864Z,1016.16
2022-08-25T01:44:37.861Z,1016.17
2022-08-25T01:45:37.870Z,1016.15
2022-08-25T01:46:37.888Z,1016.16
2022-08-25T01:47:37.829Z,1016.16
2022-08-25T01:48:37.809Z,1016.16
2022-08-25T01:49:37.815Z,1016.14
2022-08-25T01:50:37.785Z,1016.12
2022-08-25T01:51:37.780Z,1016.12
2022-08-25T01:52:37.763Z,1016.13
2022-08-25T01:53:37.761Z,1016.13
2022-08-25T01:54:37.773Z,1016.13
2022-08-25T01:55:37.742Z,1016.13
2022-08-25T01:56:37.721Z,1016.11
2022-08-25T01:57:37.716Z,1016.12
2022-08-25T01:58:37.719Z,1016.11
2022-08-25T01:59:37.700Z,1016.10
2022-08-25T02:00:37.683Z,1016.09
2022-08-25T02:01:37.713Z,1016.07
2022-08-25T02:02:37.713Z,1016.06
2022-08-25T02:03:37.669Z,1016.05
2022-08-25T02:04:37.642Z,1016.05
2022-08-25T02:05:37.631Z,1016.06
2022-08-25T02:06:37.622Z,1016.07
2022-08-25T02:07:37.614Z,1016.07
2022-08-25T02:08:37.623Z,1016.07
2022-08-25T02:09:37.591Z,1016.05
2022-08-25T02:10:37.583Z,1016.07
2022-08-25T02:11:37.570Z,1016.06
2022-08-25T02:12:37.559Z,1016.06
2022-08-25T02:13:37.563Z,1016.05
2022-08-25T02:14:37.541Z,1016.03
2022-08-25T02:15:37.533Z,1016.03
2022-08-25T02:16:37.542Z,1016.02
2022-08-25T02:17:37.504Z,1016.03
2022-08-25T02:18:37.511Z,1016.03
2022-08-25T02:19:37.489Z,1016.03
2022-08-25T02:20:37.467Z,1016.02
2022-08-25T02:21:37.473Z,1016.01
2022-08-25T02:22:37.454Z,1016.00
2022-08-25T02:23:37.442Z,1015.96
2022-08-25T02:24:37.440Z,1015.97
2022-08-25T02:25:37.422Z,1015.96
2022-08-25T02:26:37.405Z,1015.94
2022-08-25T02:27:37.398Z,1015.93
2022-08-25T02:28:37.393Z,1015.92
2022-08-25T02:29:37.392Z,1015.92
2022-08-25T02:30:37.426Z,1015.92
2022-08-25T02:31:37.367Z,1015.91
2022-08-25T02:32:37.355Z,1015.90
2022-08-25T02:33:37.359Z,1015.89
2022-08-25T02:34:37.322Z,1015.88
2022-08-25T02:35:37.322Z,1015.87
2022-08-25T02:36:37.303Z,1015.86
2022-08-25T02:37:37.297Z,1015.86
2022-08-25T02:38:37.310Z,1015.84
2022-08-25T02:39:37.284Z,1015.82
2022-08-25T02:40:37.256Z,1015.81
2022-08-25T02:41:37.253Z,1015.80
2022-08-25T02:42:37.244Z,1015.79
2022-08-25T02:43:37.255Z,1015.77
2022-08-25T02:44:37.215Z,1015.77
2022-08-25T02:45:37.281Z,1015.75
2022-08-25T02:46:37.204Z,1015.75
2022-08-25T02:47:37.199Z,1015.75
2022-08-25T02:48:37.189Z,1015.75
2022-08-25T02:49:37.171Z,1015.75
2022-08-25T02:50:37.155Z,1015.76
2022-08-25T02:51:37.147Z,1015.77
2022-08-25T02:52:37.134Z,1015.78
2022-08-25T02:53:37.146Z,1015.80
2022-08-25T02:54:37.122Z,1015.80
2022-08-25T02:55:37.104Z,1015.80
2022-08-25T02:56:37.089Z,1015.80
2022-08-25T02:57:37.088Z,1015.79
2022-08-25T02:58:37.096Z,1015.78
2022-08-25T02:59:37.061Z,1015.77
2022-08-25T03:00:37.052Z,1015.76
2022-08-25T03:01:37.065Z,1015.76
2022-08-25T03:02:37.031Z,1015.76
2022-08-25T03:03:39.426Z,1015.76
2022-08-25T03:04:37.033Z,1015.76
2022-08-25T03:05:37.001Z,1015.76
2022-08-25T03:06:36.988Z,1015.76
2022-08-25T03:07:36.993Z,1015.75
2022-08-25T03:08:36.990Z,1015.74
2022-08-25T03:09:36.979Z,1015.73
2022-08-25T03:10:36.945Z,1015.71
2022-08-25T03:11:36.941Z,1015.69
2022-08-25T03:12:36.931Z,1015.68
2022-08-25T03:13:36.924Z,1015.67
2022-08-25T03:14:36.933Z,1015.65
2022-08-25T03:15:36.900Z,1015.64
2022-08-25T03:16:36.933Z,1015.62
2022-08-25T03:17:36.882Z,1015.61
2022-08-25T03:18:36.885Z,1015.60
2022-08-25T03:19:36.862Z,1015.60
2022-08-25T03:20:36.838Z,1015.61
2022-08-25T03:21:36.834Z,1015.60
2022-08-25T03:22:36.825Z,1015.59
2022-08-25T03:23:36.832Z,1015.58
2022-08-25T03:24:36.798Z,1015.58
2022-08-25T03:25:36.807Z,1015.58
2022-08-25T03:26:36.780Z,1015.57
2022-08-25T03:27:36.773Z,1015.58
2022-08-25T03:28:36.771Z,1015.58
2022-08-25T03:29:36.746Z,1015.58
2022-08-25T03:30:36.734Z,1015.58
2022-08-25T03:31:36.764Z,1015.57
2022-08-25T03:32:36.720Z,1015.55
2022-08-25T03:33:36.730Z,1015.53
2022-08-25T03:34:36.691Z,1015.51
2022-08-25T03:35:36.686Z,1015.50
2022-08-25T03:36:36.676Z,1015.49
2022-08-25T03:37:36.624Z,1015.48
2022-08-25T03:38:36.671Z,1015.48
2022-08-25T03:39:36.643Z,1015.48
2022-08-25T03:40:36.628Z,1015.49
2022-08-25T03:41:36.582Z,1015.50
2022-08-25T03:42:36.616Z,1015.51
2022-08-25T03:43:36.626Z,1015.51
2022-08-25T03:44:36.586Z,1015.51
2022-08-25T03:45:36.637Z,1015.51
2022-08-25T03:46:36.512Z,1015.51
2022-08-25T03:47:36.510Z,1015.49
2022-08-25T03:48:36.510Z,1015.49
2022-08-25T03:49:36.484Z,1015.48
2022-08-25T03:50:36.473Z,1015.48
2022-08-25T03:51:36.463Z,1015.48
2022-08-25T03:52:40.352Z,1015.49
2022-08-25T03:53:36.459Z,1015.49
2022-08-25T03:54:36.438Z,1015.49
2022-08-25T03:55:36.425Z,1015.48
2022-08-25T03:56:36.424Z,1015.48
2022-08-25T03:57:36.398Z,1015.47
2022-08-25T03:58:36.423Z,1015.48
2022-08-25T03:59:36.374Z,1015.51
2022-08-25T04:00:36.369Z,1015.55
2022-08-25T04:01:36.409Z,1015.57
2022-08-25T04:02:36.412Z,1015.58
2022-08-25T04:03:36.359Z,1015.58
2022-08-25T04:04:36.345Z,1015.58
2022-08-25T04:05:36.312Z,1015.58
2022-08-25T04:06:36.309Z,1015.59
2022-08-25T04:07:36.296Z,1015.60
2022-08-25T04:08:36.307Z,1015.63
2022-08-25T04:09:36.985Z,1015.65
2022-08-25T04:10:36.278Z,1015.65
2022-08-25T04:11:36.252Z,1015.65
2022-08-25T04:12:36.251Z,1015.65
2022-08-25T04:13:36.251Z,1015.65
2022-08-25T04:14:36.228Z,1015.65
2022-08-25T04:15:36.207Z,1015.64
2022-08-25T04:16:36.261Z,1015.64
2022-08-25T04:17:36.184Z,1015.63
2022-08-25T04:18:36.200Z,1015.63
2022-08-25T04:19:36.166Z,1015.63
2022-08-25T04:20:36.172Z,1015.64
2022-08-25T04:21:36.146Z,1015.64
2022-08-25T04:22:36.800Z,1015.66
2022-08-25T04:23:36.138Z,1015.67
2022-08-25T04:24:36.123Z,1015.69
2022-08-25T04:25:36.107Z,1015.70
2022-08-25T04:26:36.096Z,1015.71
2022-08-25T04:27:36.087Z,1015.73
2022-08-25T04:28:36.099Z,1015.74
2022-08-25T04:29:36.062Z,1015.76
2022-08-25T04:30:36.056Z,1015.78
2022-08-25T04:31:36.123Z,1015.79
2022-08-25T04:32:36.037Z,1015.79
2022-08-25T04:33:36.037Z,1015.80
2022-08-25T04:34:36.013Z,1015.80
2022-08-25T04:35:35.998Z,1015.80
2022-08-25T04:36:35.992Z,1015.79
2022-08-25T04:37:35.983Z,1015.76
2022-08-25T04:38:35.993Z,1015.75
2022-08-25T04:39:35.956Z,1015.74
2022-08-25T04:40:36.023Z,1015.75
2022-08-25T04:41:35.938Z,1015.74
2022-08-25T04:42:35.937Z,1015.73
2022-08-25T04:43:35.937Z,1015.73
2022-08-25T04:44:35.920Z,1015.73
2022-08-25T04:45:35.908Z,1015.72
2022-08-25T04:46:35.900Z,1015.72
2022-08-25T04:47:35.884Z,1015.71
2022-08-25T04:48:35.899Z,1015.71
2022-08-25T04:49:35.851Z,1015.71
2022-08-25T04:50:35.870Z,1015.72
2022-08-25T04:51:35.828Z,1015.73
2022-08-25T04:52:35.827Z,1015.74
2022-08-25T04:53:35.808Z,1015.74
2022-08-25T04:54:37.414Z,1015.75
2022-08-25T04:55:35.785Z,1015.76
2022-08-25T04:56:35.782Z,1015.77
2022-08-25T04:57:35.771Z,1015.78
2022-08-25T04:58:35.757Z,1015.78
2022-08-25T04:59:35.763Z,1015.78
2022-08-25T05:00:35.871Z,1015.78
2022-08-25T05:01:35.726Z,1015.77
2022-08-25T05:02:35.726Z,1015.75
2022-08-25T05:03:35.703Z,1015.73
2022-08-25T05:04:35.787Z,1015.72
2022-08-25T05:05:35.684Z,1015.71
2022-08-25T05:06:35.680Z,1015.71
2022-08-25T05:07:35.670Z,1015.72
2022-08-25T05:08:35.659Z,1015.75
2022-08-25T05:09:35.657Z,1015.77
2022-08-25T05:10:35.635Z,1015.78
2022-08-25T05:11:35.622Z,1015.78
2022-08-25T05:12:35.616Z,1015.79
2022-08-25T05:13:35.606Z,1015.78
2022-08-25T05:14:35.611Z,1015.77
2022-08-25T05:15:35.580Z,1015.77
2022-08-25T05:16:35.623Z,1015.78
2022-08-25T05:17:35.565Z,1015.79
2022-08-25T05:18:35.563Z,1015.81
2022-08-25T05:19:35.548Z,1015.83
2022-08-25T05:20:35.529Z,1015.85
2022-08-25T05:21:35.512Z,1015.87
2022-08-25T05:22:35.506Z,1015.89
2022-08-25T05:23:35.493Z,1015.90
2022-08-25T05:24:35.508Z,1015.88
2022-08-25T05:25:35.475Z,1015.89
2022-08-25T05:26:35.469Z,1015.90
2022-08-25T05:27:35.453Z,1015.94
2022-08-25T05:28:35.461Z,1015.94
2022-08-25T05:29:35.445Z,1015.96
2022-08-25T05:30:35.428Z,1015.97
2022-08-25T05:31:38.455Z,1015.98
2022-08-25T05:32:35.409Z,1015.99
2022-08-25T05:33:35.388Z,1016.01
2022-08-25T05:34:35.420Z,1016.02
2022-08-25T05:35:35.370Z,1016.02
2022-08-25T05:36:35.363Z,1016.02
2022-08-25T05:37:35.344Z,1016.05
2022-08-25T05:38:35.340Z,1016.06
2022-08-25T05:39:35.346Z,1016.07
2022-08-25T05:40:35.323Z,1016.07
2022-08-25T05:41:35.314Z,1016.07
2022-08-25T05:42:35.300Z,1016.06
2022-08-25T05:43:35.281Z,1016.06
2022-08-25T05:44:35.294Z,1016.07
2022-08-25T05:45:35.295Z,1016.07
2022-08-25T05:46:35.281Z,1016.07
2022-08-25T05:47:35.254Z,1016.07
2022-08-25T05:48:35.241Z,1016.07
2022-08-25T05:49:35.242Z,1016.07
2022-08-25T05:50:35.213Z,1016.06
2022-08-25T05:51:35.213Z,1016.06
2022-08-25T05:52:35.205Z,1016.04
2022-08-25T05:53:35.176Z,1016.04
2022-08-25T05:54:35.188Z,1016.02
2022-08-25T05:55:35.158Z,1016.03
2022-08-25T05:56:35.157Z,1016.01
2022-08-25T05:57:35.139Z,1016.03
2022-08-25T05:58:35.134Z,1016.05
2022-08-25T05:59:35.133Z,1016.03
2022-08-25T06:00:35.110Z,1016.05
2022-08-25T06:01:35.094Z,1016.04
2022-08-25T06:02:35.095Z,1016.03
2022-08-25T06:03:35.136Z,1016.02
2022-08-25T06:04:37.542Z,1015.99
2022-08-25T06:05:35.055Z,1016.01
2022-08-25T06:06:35.055Z,1016.02
2022-08-25T06:07:35.030Z,1016.03
2022-08-25T06:08:35.024Z,1016.02
2022-08-25T06:09:35.044Z,1016.02
2022-08-25T06:10:35.020Z,1016.01
2022-08-25T06:11:35.038Z,1016.02
2022-08-25T06:12:34.990Z,1016.03
2022-08-25T06:13:34.967Z,1016.03
2022-08-25T06:14:34.986Z,1016.04
2022-08-25T06:15:34.955Z,1016.02
2022-08-25T06:16:34.976Z,1016.01
2022-08-25T06:17:34.943Z,1016.00
2022-08-25T06:18:34.921Z,1015.98
2022-08-25T06:19:34.924Z,1015.99
2022-08-25T06:20:34.903Z,1015.96
2022-08-25T06:21:34.890Z,1015.96
2022-08-25T06:22:34.885Z,1015.96
2022-08-25T06:23:34.877Z,1015.94
2022-08-25T06:24:34.873Z,1015.95
2022-08-25T06:25:34.857Z,1015.96
2022-08-25T06:26:34.848Z,1015.96
2022-08-25T06:27:34.826Z,1015.93
2022-08-25T06:28:34.835Z,1015.93
2022-08-25T06:29:34.804Z,1015.92
2022-08-25T06:30:34.792Z,1015.90
2022-08-25T06:31:34.920Z,1015.89
2022-08-25T06:32:34.771Z,1015.89
2022-08-25T06:33:34.776Z,1015.89
2022-08-25T06:34:34.753Z,1015.90
2022-08-25T06:35:34.747Z,1015.93
2022-08-25T06:36:34.739Z,1015.93
2022-08-25T06:37:34.716Z,1015.96
2022-08-25T06:38:34.740Z,1015.96
2022-08-25T06:39:34.698Z,1015.95
2022-08-25T06:40:34.739Z,1015.94
2022-08-25T06:41:37.110Z,1015.95
2022-08-25T06:42:34.669Z,1015.94
2022-08-25T06:43:34.676Z,1015.96
2022-08-25T06:44:34.660Z,1016.00
2022-08-25T06:45:34.653Z,1016.03
2022-08-25T06:46:36.785Z,1016.05
2022-08-25T06:47:34.613Z,1016.05
2022-08-25T06:48:34.633Z,1016.04
2022-08-25T06:49:36.242Z,1016.04
2022-08-25T06:50:34.616Z,1016.03
2022-08-25T06:51:34.569Z,1016.04
2022-08-25T06:52:34.570Z,1016.06
2022-08-25T06:53:34.573Z,1016.10
2022-08-25T06:54:34.544Z,1016.11
2022-08-25T06:55:34.536Z,1016.11
2022-08-25T06:56:34.537Z,1016.12
2022-08-25T06:57:34.508Z,1016.12
2022-08-25T06:58:34.527Z,1016.13
2022-08-25T06:59:34.491Z,1016.11
2022-08-25T07:00:34.529Z,1016.11
2022-08-25T07:01:34.587Z,1016.12
2022-08-25T07:02:35.429Z,1016.11
2022-08-25T07:03:34.462Z,1016.13
2022-08-25T07:04:34.441Z,1016.14
2022-08-25T07:05:43.437Z,1016.13
2022-08-25T07:06:34.429Z,1016.13
2022-08-25T07:07:44.049Z,1016.12
2022-08-25T07:08:34.440Z,1016.10
2022-08-25T07:09:37.403Z,1016.09
2022-08-25T07:10:34.381Z,1016.08
2022-08-25T07:11:34.388Z,1016.07
2022-08-25T07:12:34.376Z,1016.07
2022-08-25T07:13:34.358Z,1016.06
2022-08-25T07:14:34.333Z,1016.05
2022-08-25T07:15:34.327Z,1016.03
2022-08-25T07:16:34.361Z,1016.00
2022-08-25T07:17:34.300Z,1015.98
2022-08-25T07:18:34.309Z,1015.96
2022-08-25T07:19:34.302Z,1015.95
2022-08-25T07:20:34.282Z,1015.93
2022-08-25T07:21:35.634Z,1015.96
2022-08-25T07:22:34.249Z,1015.94
2022-08-25T07:23:34.253Z,1015.94
2022-08-25T07:24:34.236Z,1015.93
2022-08-25T07:25:34.219Z,1015.94
2022-08-25T07:26:37.798Z,1015.93
2022-08-25T07:27:34.193Z,1015.92
2022-08-25T07:28:34.211Z,1015.90
2022-08-25T07:29:34.178Z,1015.91
2022-08-25T07:30:34.178Z,1015.89
2022-08-25T07:31:34.180Z,1015.90
2022-08-25T07:32:34.157Z,1015.88
2022-08-25T07:33:34.146Z,1015.87
2022-08-25T07:34:34.123Z,1015.85
2022-08-25T07:35:36.533Z,1015.82
2022-08-25T07:36:34.112Z,1015.82
2022-08-25T07:37:50.044Z,1015.82
2022-08-25T07:38:34.100Z,1015.83
2022-08-25T07:39:34.064Z,1015.82
2022-08-25T07:40:34.109Z,1015.81
2022-08-25T07:41:34.045Z,1015.81
2022-08-25T07:42:34.041Z,1015.80
2022-08-25T07:43:34.047Z,1015.79
2022-08-25T07:44:34.018Z,1015.78
2022-08-25T07:45:34.003Z,1015.79
2022-08-25T07:46:34.054Z,1015.80
2022-08-25T07:47:33.982Z,1015.80
2022-08-25T07:48:34.022Z,1015.81
2022-08-25T07:49:35.726Z,1015.81
2022-08-25T07:50:33.963Z,1015.82
2022-08-25T07:51:33.939Z,1015.82
2022-08-25T07:52:33.935Z,1015.83
2022-08-25T07:53:33.960Z,1015.84
2022-08-25T07:54:34.937Z,1015.84
2022-08-25T07:55:33.912Z,1015.84
2022-08-25T07:56:33.897Z,1015.83
2022-08-25T07:57:33.878Z,1015.83
2022-08-25T07:58:33.885Z,1015.82
2022-08-25T07:59:39.243Z,1015.82
2022-08-25T08:00:33.857Z,1015.82
2022-08-25T08:01:33.885Z,1015.82
2022-08-25T08:02:33.897Z,1015.83
2022-08-25T08:03:50.158Z,1015.83
2022-08-25T08:04:33.843Z,1015.83
2022-08-25T08:05:33.798Z,1015.82
2022-08-25T08:06:33.781Z,1015.81
2022-08-25T08:07:41.919Z,1015.83
2022-08-25T08:08:33.764Z,1015.84
2022-08-25T08:09:33.774Z,1015.82
2022-08-25T08:10:53.801Z,1015.81
2022-08-25T08:11:33.738Z,1015.79
2022-08-25T08:12:33.720Z,1015.77
2022-08-25T08:13:36.830Z,1015.74
2022-08-25T08:14:33.694Z,1015.72
2022-08-25T08:15:33.691Z,1015.71
2022-08-25T08:16:33.716Z,1015.70
2022-08-25T08:17:33.669Z,1015.70
2022-08-25T08:18:33.662Z,1015.70
2022-08-25T08:19:33.671Z,1015.70
2022-08-25T08:20:42.486Z,1015.71
2022-08-25T08:21:33.636Z,1015.71
2022-08-25T08:22:33.614Z,1015.70
2022-08-25T08:23:33.615Z,1015.68
2022-08-25T08:24:44.823Z,1015.69
2022-08-25T08:25:33.592Z,1015.69
2022-08-25T08:26:55.455Z,1015.71
2022-08-25T08:27:33.573Z,1015.70
2022-08-25T08:28:33.557Z,1015.71
2022-08-25T08:29:33.566Z,1015.71
2022-08-25T08:30:33.531Z,1015.70
2022-08-25T08:31:33.615Z,1015.69
2022-08-25T08:32:59.583Z,1015.68
2022-08-25T08:33:33.510Z,1015.66
2022-08-25T08:34:33.516Z,1015.65
2022-08-25T08:35:33.482Z,1015.63
2022-08-25T08:36:33.480Z,1015.60
2022-08-25T08:37:33.462Z,1015.60
2022-08-25T08:38:33.448Z,1015.58
2022-08-25T08:39:33.491Z,1015.58
2022-08-25T08:40:33.461Z,1015.57
2022-08-25T08:41:40.055Z,1015.56
2022-08-25T08:42:33.421Z,1015.56
2022-08-25T08:43:33.569Z,1015.55
2022-08-25T08:44:33.407Z,1015.56
2022-08-25T08:45:35.545Z,1015.56
2022-08-25T08:46:33.491Z,1015.55
2022-08-25T08:47:33.368Z,1015.55
2022-08-25T08:48:33.344Z,1015.56
2022-08-25T08:49:33.352Z,1015.54
2022-08-25T08:50:33.657Z,1015.53
2022-08-25T08:51:33.514Z,1015.53
2022-08-25T08:52:33.310Z,1015.51
2022-08-25T08:53:34.331Z,1015.52
2022-08-25T08:54:33.990Z,1015.52
2022-08-25T08:55:33.296Z,1015.52
2022-08-25T08:56:33.262Z,1015.52
2022-08-25T08:57:33.255Z,1015.52
2022-08-25T08:58:33.241Z,1015.54
2022-08-25T08:59:33.254Z,1015.54
2022-08-25T09:00:33.228Z,1015.52
2022-08-25T09:01:33.273Z,1015.53
2022-08-25T09:02:39.265Z,1015.52
2022-08-25T09:03:33.250Z,1015.54
2022-08-25T09:04:33.200Z,1015.55
2022-08-25T09:05:35.786Z,1015.54
2022-08-25T09:06:33.164Z,1015.52
2022-08-25T09:07:33.150Z,1015.54
2022-08-25T09:08:33.157Z,1015.54
2022-08-25T09:09:35.931Z,1015.52
2022-08-25T09:10:33.115Z,1015.51
2022-08-25T09:11:33.115Z,1015.50
2022-08-25T09:12:33.510Z,1015.51
2022-08-25T09:13:33.104Z,1015.51
2022-08-25T09:14:33.071Z,1015.51
2022-08-25T09:15:33.107Z,1015.51
2022-08-25T09:16:34.702Z,1015.50
2022-08-25T09:17:33.044Z,1015.48
2022-08-25T09:18:33.449Z,1015.46
2022-08-25T09:19:33.021Z,1015.44
2022-08-25T09:20:33.008Z,1015.45
2022-08-25T09:21:33.001Z,1015.48
2022-08-25T09:22:35.947Z,1015.51
2022-08-25T09:23:33.011Z,1015.47
2022-08-25T09:24:32.990Z,1015.47
2022-08-25T09:25:52.228Z,1015.47
2022-08-25T09:26:32.962Z,1015.45
2022-08-25T09:27:32.940Z,1015.46
2022-08-25T09:28:32.932Z,1015.44
2022-08-25T09:29:32.952Z,1015.44
2022-08-25T09:30:32.906Z,1015.43
2022-08-25T09:31:32.919Z,1015.40
2022-08-25T09:32:32.888Z,1015.40
2022-08-25T09:33:35.459Z,1015.39
2022-08-25T09:34:32.891Z,1015.41
2022-08-25T09:35:32.865Z,1015.39
2022-08-25T09:36:36.916Z,1015.39
2022-08-25T09:37:32.834Z,1015.40
2022-08-25T09:38:32.828Z,1015.37
2022-08-25T09:39:32.849Z,1015.37
2022-08-25T09:40:32.851Z,1015.35
2022-08-25T09:41:32.810Z,1015.34
2022-08-25T09:42:32.783Z,1015.33
2022-08-25T09:43:32.777Z,1015.33
2022-08-25T09:44:32.957Z,1015.32
2022-08-25T09:45:32.764Z,1015.32
2022-08-25T09:46:32.774Z,1015.33
2022-08-25T09:47:32.761Z,1015.31
2022-08-25T09:48:36.564Z,1015.31
2022-08-25T09:49:32.728Z,1015.29
2022-08-25T09:50:32.708Z,1015.28
2022-08-25T09:51:42.538Z,1015.29
2022-08-25T09:52:32.696Z,1015.28
2022-08-25T09:53:33.675Z,1015.27
2022-08-25T09:54:43.896Z,1015.26
2022-08-25T09:55:32.781Z,1015.25
2022-08-25T09:56:32.635Z,1015.25
2022-08-25T09:57:32.630Z,1015.21
2022-08-25T09:58:32.612Z,1015.21
2022-08-25T09:59:35.210Z,1015.20
2022-08-25T10:00:32.625Z,1015.21
2022-08-25T10:01:34.756Z,1015.20
2022-08-25T10:02:32.571Z,1015.19
2022-08-25T10:03:36.796Z,1015.19
2022-08-25T10:04:32.555Z,1015.19
2022-08-25T10:05:32.588Z,1015.20
2022-08-25T10:06:32.530Z,1015.18
2022-08-25T10:07:32.534Z,1015.17
2022-08-25T10:08:32.510Z,1015.14
2022-08-25T10:09:32.523Z,1015.12
2022-08-25T10:10:32.700Z,1015.12
2022-08-25T10:11:32.492Z,1015.11
2022-08-25T10:12:32.469Z,1015.10
2022-08-25T10:13:32.482Z,1015.08
2022-08-25T10:14:32.458Z,1015.09
2022-08-25T10:15:32.528Z,1015.09
2022-08-25T10:16:36.208Z,1015.08
2022-08-25T10:17:33.464Z,1015.06
2022-08-25T10:18:32.425Z,1015.06
2022-08-25T10:19:32.431Z,1015.06
2022-08-25T10:20:35.150Z,1015.06
2022-08-25T10:21:32.387Z,1015.04
2022-08-25T10:22:32.372Z,1015.03
2022-08-25T10:23:32.379Z,1015.00
2022-08-25T10:24:32.371Z,1015.00
2022-08-25T10:25:32.345Z,1014.98
2022-08-25T10:26:34.908Z,1014.97
2022-08-25T10:27:32.322Z,1014.96
2022-08-25T10:28:32.319Z,1014.96
2022-08-25T10:29:32.662Z,1014.95
2022-08-25T10:30:32.287Z,1014.98
2022-08-25T10:31:33.084Z,1014.99
2022-08-25T10:32:32.260Z,1014.98
2022-08-25T10:33:32.313Z,1014.99
2022-08-25T10:34:32.249Z,1014.96
2022-08-25T10:35:32.323Z,1014.97
2022-08-25T10:36:32.220Z,1014.97
2022-08-25T10:37:32.912Z,1014.96
2022-08-25T10:38:35.448Z,1014.99
2022-08-25T10:39:36.305Z,1014.98
2022-08-25T10:40:32.278Z,1015.03
2022-08-25T10:41:32.184Z,1014.99
2022-08-25T10:42:32.159Z,1014.98
2022-08-25T10:43:32.165Z,1014.96
2022-08-25T10:44:32.137Z,1014.93
2022-08-25T10:45:32.127Z,1014.91
2022-08-25T10:46:32.191Z,1014.90
2022-08-25T10:47:32.111Z,1014.87
2022-08-25T10:48:32.118Z,1014.86
2022-08-25T10:49:32.089Z,1014.81
2022-08-25T10:50:32.093Z,1014.79
2022-08-25T10:51:32.072Z,1014.76
2022-08-25T10:52:32.055Z,1014.71
2022-08-25T10:53:32.067Z,1014.69
2022-08-25T10:54:32.031Z,1014.69
2022-08-25T10:55:32.027Z,1014.64
2022-08-25T10:56:32.017Z,1014.62
2022-08-25T10:57:32.011Z,1014.57
2022-08-25T10:58:32.006Z,1014.58
2022-08-25T10:59:31.990Z,1014.57
2022-08-25T11:00:31.972Z,1014.57
2022-08-25T11:01:38.948Z,1014.54
2022-08-25T11:02:31.963Z,1014.52
2022-08-25T11:03:35.355Z,1014.51
2022-08-25T11:04:31.926Z,1014.48
2022-08-25T11:05:32.065Z,1014.46
2022-08-25T11:06:31.911Z,1014.44
2022-08-25T11:07:31.905Z,1014.46
2022-08-25T11:08:31.902Z,1014.43
2022-08-25T11:09:31.884Z,1014.44
2022-08-25T11:10:31.864Z,1014.44
2022-08-25T11:11:31.862Z,1014.42
2022-08-25T11:12:31.848Z,1014.43
2022-08-25T11:13:31.858Z,1014.43
2022-08-25T11:14:34.526Z,1014.43
2022-08-25T11:15:31.866Z,1014.43
2022-08-25T11:16:31.815Z,1014.41
2022-08-25T11:17:31.803Z,1014.42
2022-08-25T11:18:31.813Z,1014.42
2022-08-25T11:19:32.793Z,1014.42
2022-08-25T11:20:31.763Z,1014.41
2022-08-25T11:21:31.762Z,1014.41
2022-08-25T11:22:31.745Z,1014.40
2022-08-25T11:23:31.768Z,1014.42
2022-08-25T11:24:31.719Z,1014.40
2022-08-25T11:25:31.722Z,1014.39
2022-08-25T11:26:34.920Z,1014.38
2022-08-25T11:27:31.706Z,1014.36
2022-08-25T11:28:31.692Z,1014.35
2022-08-25T11:29:31.683Z,1014.32
2022-08-25T11:30:31.674Z,1014.30
2022-08-25T11:31:31.672Z,1014.29
2022-08-25T11:32:31.641Z,1014.30
2022-08-25T11:33:31.649Z,1014.28
2022-08-25T11:34:31.619Z,1014.27
2022-08-25T11:35:31.656Z,1014.26
2022-08-25T11:36:31.600Z,1014.26
2022-08-25T11:37:31.591Z,1014.24
2022-08-25T11:38:31.590Z,1014.22
2022-08-25T11:39:34.403Z,1014.24
2022-08-25T11:40:31.594Z,1014.22
2022-08-25T11:41:31.553Z,1014.20
2022-08-25T11:42:31.531Z,1014.20
2022-08-25T11:43:31.540Z,1014.21
2022-08-25T11:44:31.510Z,1014.21
2022-08-25T11:45:31.543Z,1014.22
2022-08-25T11:46:31.552Z,1014.23
2022-08-25T11:47:31.481Z,1014.22
2022-08-25T11:48:31.484Z,1014.20
2022-08-25T11:49:31.473Z,1014.20
2022-08-25T11:50:31.455Z,1014.20
2022-08-25T11:51:31.443Z,1014.19
2022-08-25T11:52:31.426Z,1014.22
2022-08-25T11:53:31.446Z,1014.21
2022-08-25T11:54:31.407Z,1014.21
2022-08-25T11:55:31.500Z,1014.20
2022-08-25T11:56:31.383Z,1014.19
2022-08-25T11:57:31.382Z,1014.18
2022-08-25T11:58:31.384Z,1014.16
2022-08-25T11:59:31.362Z,1014.13
2022-08-25T12:00:31.359Z,1014.10
2022-08-25T12:01:31.344Z,1014.09
2022-08-25T12:02:31.318Z,1014.12
2022-08-25T12:03:31.349Z,1014.09
2022-08-25T12:04:31.462Z,1014.07
2022-08-25T12:05:31.354Z,1014.06